createdAt,value
2022-09-25T00:01:19.425Z,99714.47
2022-09-25T00:03:47.574Z,99722.44
2022-09-25T00:06:17.226Z,99714.34
2022-09-25T00:08:47.179Z,99722.59
2022-09-25T00:11:20.239Z,99722.41
2022-09-25T00:13:49.055Z,99729.19
2022-09-25T00:16:19.041Z,99730.31
2022-09-25T00:19:04.399Z,99731.72
2022-09-25T00:21:33.216Z,99719.09
2022-09-25T00:24:05.111Z,99718.25
2022-09-25T00:26:34.779Z,99721.88
2022-09-25T00:29:03.256Z,99721.44
2022-09-25T00:31:32.287Z,99723.38
2022-09-25T00:34:01.996Z,99727.56
2022-09-25T00:36:30.683Z,99725.50
2022-09-25T00:38:58.354Z,99727.28
2022-09-25T00:41:30.175Z,99729.56
2022-09-25T00:43:59.699Z,99721.00
2022-09-25T00:46:31.574Z,99721.66
2022-09-25T00:49:03.633Z,99715.03
2022-09-25T00:51:38.940Z,99712.22
2022-09-25T00:54:09.755Z,99713.81
2022-09-25T00:56:43.924Z,99714.63
2022-09-25T00:59:28.132Z,99708.47
2022-09-25T01:01:56.336Z,99714.19
2022-09-25T01:04:24.543Z,99711.22
2022-09-25T01:06:52.515Z,99718.22
2022-09-25T01:09:20.642Z,99712.81
2022-09-25T01:11:49.749Z,99705.63
2022-09-25T01:14:17.653Z,99718.50
2022-09-25T01:16:51.194Z,99712.63
2022-09-25T01:19:27.228Z,99709.22
2022-09-25T01:22:01.802Z,99714.44
2022-09-25T01:24:49.796Z,99709.81
2022-09-25T01:27:37.597Z,99713.69
2022-09-25T01:30:10.494Z,99706.88
2022-09-25T01:32:52.603Z,99708.03
2022-09-25T01:35:30.165Z,99702.94
2022-09-25T01:38:02.679Z,99698.28
2022-09-25T01:40:36.407Z,99710.31
2022-09-25T01:43:12.182Z,99708.16
2022-09-25T01:45:46.265Z,99702.50
2022-09-25T01:48:17.595Z,99703.19
2022-09-25T01:50:49.601Z,99705.31
2022-09-25T01:53:22.612Z,99701.16
2022-09-25T01:55:57.878Z,99706.06
2022-09-25T01:58:29.904Z,99696.66
2022-09-25T02:01:02.282Z,99698.31
2022-09-25T02:03:37.919Z,99686.22
2022-09-25T02:06:10.041Z,99688.31
2022-09-25T02:08:44.261Z,99689.72
2022-09-25T02:11:14.213Z,99692.16
2022-09-25T02:13:49.213Z,99684.00
2022-09-25T02:16:22.951Z,99686.09
2022-09-25T02:19:08.823Z,99689.78
2022-09-25T02:21:46.576Z,99688.19
2022-09-25T02:24:21.940Z,99684.47
2022-09-25T02:26:50.966Z,99683.63
2022-09-25T02:29:20.829Z,99688.28
2022-09-25T02:31:54.559Z,99683.59
2022-09-25T02:34:22.841Z,99679.88
2022-09-25T02:36:50.946Z,99674.81
2022-09-25T02:39:23.026Z,99681.97
2022-09-25T02:42:10.448Z,99682.38
2022-09-25T02:44:56.020Z,99686.75
2022-09-25T02:47:35.619Z,99680.59
2022-09-25T02:50:14.067Z,99682.66
2022-09-25T02:52:47.484Z,99678.81
2022-09-25T02:55:23.135Z,99676.75
2022-09-25T02:57:57.129Z,99675.78
2022-09-25T03:00:25.165Z,99676.22
2022-09-25T03:02:59.429Z,99684.56
2022-09-25T03:05:27.633Z,99677.84
2022-09-25T03:08:13.273Z,99678.41
2022-09-25T03:10:46.495Z,99677.56
2022-09-25T03:13:19.005Z,99679.22
2022-09-25T03:15:51.987Z,99674.94
2022-09-25T03:18:21.969Z,99677.56
2022-09-25T03:20:52.660Z,99678.63
2022-09-25T03:23:20.771Z,99687.84
2022-09-25T03:25:50.407Z,99685.50
2022-09-25T03:28:19.289Z,99685.69
2022-09-25T03:30:58.421Z,99683.69
2022-09-25T03:33:29.988Z,99686.06
2022-09-25T03:36:03.478Z,99684.47
2022-09-25T03:38:31.573Z,99684.28
2022-09-25T03:40:59.826Z,99683.63
2022-09-25T03:43:28.379Z,99692.28
2022-09-25T03:45:56.568Z,99692.38
2022-09-25T03:48:24.567Z,99691.78
2022-09-25T03:50:53.755Z,99689.41
2022-09-25T03:53:21.472Z,99693.34
2022-09-25T03:55:49.663Z,99694.94
2022-09-25T03:58:18.280Z,99690.34
2022-09-25T04:00:47.724Z,99689.81
2022-09-25T04:03:16.608Z,99682.41
2022-09-25T04:05:46.208Z,99681.44
2022-09-25T04:08:16.253Z,99682.50
2022-09-25T04:10:43.968Z,99685.81
2022-09-25T04:13:12.931Z,99688.16
2022-09-25T04:15:42.732Z,99671.53
2022-09-25T04:18:10.610Z,99674.50
2022-09-25T04:20:38.532Z,99680.00
2022-09-25T04:23:06.320Z,99686.22
2022-09-25T04:25:36.050Z,99689.16
2022-09-25T04:28:04.663Z,99691.53
2022-09-25T04:30:32.712Z,99684.03
2022-09-25T04:33:19.250Z,99696.00
2022-09-25T04:35:47.246Z,99677.81
2022-09-25T04:38:15.165Z,99691.66
2022-09-25T04:40:46.063Z,99697.84
2022-09-25T04:43:14.342Z,99694.53
2022-09-25T04:45:42.323Z,99693.94
2022-09-25T04:48:11.529Z,99698.41
2022-09-25T04:50:39.465Z,99700.31
2022-09-25T04:53:07.278Z,99700.69
2022-09-25T04:55:34.990Z,99695.88
2022-09-25T04:58:03.993Z,99693.19
2022-09-25T05:00:33.588Z,99692.06
2022-09-25T05:03:04.518Z,99693.69
2022-09-25T05:05:32.990Z,99688.66
2022-09-25T05:08:02.429Z,99691.47
2022-09-25T05:10:31.741Z,99694.41
2022-09-25T05:13:00.830Z,99698.38
2022-09-25T05:15:32.040Z,99687.94
2022-09-25T05:18:04.358Z,99688.69
2022-09-25T05:20:32.663Z,99692.53
2022-09-25T05:23:01.430Z,99682.34
2022-09-25T05:25:29.148Z,99693.09
2022-09-25T05:27:59.372Z,99692.81
2022-09-25T05:30:28.846Z,99691.38
2022-09-25T05:32:59.422Z,99691.44
2022-09-25T05:35:30.251Z,99691.84
2022-09-25T05:37:58.693Z,99686.13
2022-09-25T05:40:27.312Z,99682.97
2022-09-25T05:42:56.081Z,99691.31
2022-09-25T05:45:24.511Z,99694.38
2022-09-25T05:48:03.031Z,99701.94
2022-09-25T05:50:32.471Z,99703.69
2022-09-25T05:53:01.585Z,99695.22
2022-09-25T05:55:30.368Z,99694.97
2022-09-25T05:58:01.533Z,99694.84
2022-09-25T06:00:29.902Z,99700.41
2022-09-25T06:02:57.631Z,99691.78
2022-09-25T06:05:26.715Z,99695.34
2022-09-25T06:07:55.470Z,99698.91
2022-09-25T06:10:26.612Z,99696.34
2022-09-25T06:12:58.876Z,99695.84
2022-09-25T06:15:27.991Z,99704.63
2022-09-25T06:17:56.095Z,99697.22
2022-09-25T06:20:24.701Z,99699.41
2022-09-25T06:22:54.767Z,99704.19
2022-09-25T06:25:24.076Z,99701.84
2022-09-25T06:27:53.465Z,99701.66
2022-09-25T06:30:21.951Z,99707.97
2022-09-25T06:32:51.136Z,99705.53
2022-09-25T06:35:18.909Z,99710.16
2022-09-25T06:37:46.563Z,99704.81
2022-09-25T06:40:16.056Z,99709.84
2022-09-25T06:42:46.177Z,99715.75
2022-09-25T06:45:13.965Z,99713.84
2022-09-25T06:47:41.661Z,99710.19
2022-09-25T06:50:09.834Z,99712.94
2022-09-25T06:52:43.129Z,99718.22
2022-09-25T06:55:11.516Z,99713.84
2022-09-25T06:57:40.790Z,99711.84
2022-09-25T07:00:10.000Z,99715.91
2022-09-25T07:02:55.376Z,99718.50
2022-09-25T07:05:23.202Z,99711.28
2022-09-25T07:07:50.831Z,99715.72
2022-09-25T07:10:18.600Z,99718.00
2022-09-25T07:12:47.942Z,99715.03
2022-09-25T07:15:15.996Z,99714.75
2022-09-25T07:17:43.978Z,99711.78
2022-09-25T07:20:14.199Z,99712.16
2022-09-25T07:22:42.702Z,99711.84
2022-09-25T07:25:11.690Z,99716.78
2022-09-25T07:27:39.802Z,99708.91
2022-09-25T07:30:10.534Z,99715.91
2022-09-25T07:32:38.185Z,99714.50
2022-09-25T07:35:06.583Z,99706.94
2022-09-25T07:37:34.417Z,99711.63
2022-09-25T07:40:02.709Z,99708.66
2022-09-25T07:42:32.044Z,99713.38
2022-09-25T07:44:59.819Z,99709.75
2022-09-25T07:47:28.775Z,99710.47
2022-09-25T07:49:56.638Z,99713.19
2022-09-25T07:52:24.696Z,99713.63
2022-09-25T07:54:53.066Z,99721.00
2022-09-25T07:57:21.374Z,99721.81
2022-09-25T07:59:49.578Z,99715.91
2022-09-25T08:02:17.533Z,99715.44
2022-09-25T08:04:46.825Z,99713.63
2022-09-25T08:07:16.668Z,99713.72
2022-09-25T08:09:44.525Z,99719.28
2022-09-25T08:12:13.872Z,99723.94
2022-09-25T08:14:42.111Z,99719.84
2022-09-25T08:17:09.962Z,99715.75
2022-09-25T08:19:37.838Z,99726.75
2022-09-25T08:22:07.046Z,99725.22
2022-09-25T08:24:34.906Z,99727.16
2022-09-25T08:27:02.986Z,99726.78
2022-09-25T08:29:31.076Z,99728.63
2022-09-25T08:31:58.844Z,99723.56
2022-09-25T08:34:42.301Z,99724.06
2022-09-25T08:37:12.057Z,99723.97
2022-09-25T08:39:40.707Z,99724.78
2022-09-25T08:42:18.245Z,99722.72
2022-09-25T08:45:20.936Z,99721.72
2022-09-25T08:48:10.194Z,99728.44
2022-09-25T08:50:38.816Z,99724.34
2022-09-25T08:53:15.148Z,99727.03
2022-09-25T08:56:00.830Z,99721.38
2022-09-25T08:58:31.690Z,99717.38
2022-09-25T09:01:04.158Z,99723.16
2022-09-25T09:03:34.040Z,99723.22
2022-09-25T09:06:05.743Z,99721.34
2022-09-25T09:08:39.699Z,99723.72
2022-09-25T09:11:13.933Z,99722.03
2022-09-25T09:13:47.586Z,99720.69
2022-09-25T09:16:19.195Z,99722.59
2022-09-25T09:18:47.323Z,99725.91
2022-09-25T09:21:22.574Z,99721.78
2022-09-25T09:24:01.298Z,99727.19
2022-09-25T09:26:38.784Z,99725.91
2022-09-25T09:29:28.060Z,99722.19
2022-09-25T09:32:04.511Z,99722.50
2022-09-25T09:37:45.847Z,99722.19
2022-09-25T09:40:25.358Z,99720.28
2022-09-25T09:43:04.940Z,99721.16
2022-09-25T09:45:44.291Z,99724.38
2022-09-25T09:48:21.122Z,99723.72
2022-09-25T09:50:53.541Z,99724.97
2022-09-25T09:53:32.256Z,99723.00
2022-09-25T09:56:09.019Z,99725.91
2022-09-25T09:58:46.163Z,99720.03
2022-09-25T10:01:37.073Z,99727.31
2022-09-25T10:04:09.756Z,99721.63
2022-09-25T10:06:40.211Z,99724.84
2022-09-25T10:09:11.711Z,99719.06
2022-09-25T10:11:43.101Z,99716.97
2022-09-25T10:14:21.246Z,99712.63
2022-09-25T10:16:52.466Z,99714.22
2022-09-25T10:19:23.790Z,99707.03
2022-09-25T10:21:56.652Z,99710.47
2022-09-25T10:24:51.941Z,99707.63
2022-09-25T10:27:33.710Z,99703.56
2022-09-25T10:30:05.189Z,99706.09
2022-09-25T10:32:36.487Z,99705.25
2022-09-25T10:35:05.776Z,99706.56
2022-09-25T10:37:37.520Z,99711.31
2022-09-25T10:40:08.702Z,99716.00
2022-09-25T10:42:41.836Z,99710.72
2022-09-25T10:45:32.396Z,99701.78
2022-09-25T10:48:18.844Z,99707.41
2022-09-25T10:51:08.670Z,99707.31
2022-09-25T10:53:38.901Z,99712.72
2022-09-25T10:56:12.758Z,99709.34
2022-09-25T10:58:46.577Z,99708.47
2022-09-25T11:01:17.113Z,99711.50
2022-09-25T11:03:56.779Z,99716.44
2022-09-25T11:06:27.170Z,99719.31
2022-09-25T11:09:15.133Z,99719.22
2022-09-25T11:11:46.072Z,99722.09
2022-09-25T11:14:31.762Z,99718.94
2022-09-25T11:17:01.584Z,99717.94
2022-09-25T11:19:31.955Z,99722.22
2022-09-25T11:22:18.145Z,99711.34
2022-09-25T11:25:00.163Z,99714.41
2022-09-25T11:27:36.395Z,99711.38
2022-09-25T11:30:10.131Z,99716.22
2022-09-25T11:32:52.401Z,99714.41
2022-09-25T11:35:35.007Z,99713.38
2022-09-25T11:38:16.554Z,99717.81
2022-09-25T11:41:12.963Z,99714.53
2022-09-25T11:43:57.743Z,99710.09
2022-09-25T11:46:35.448Z,99708.75
2022-09-25T11:49:16.394Z,99715.25
2022-09-25T11:52:29.416Z,99716.19
2022-09-25T11:55:37.188Z,99721.38
2022-09-25T11:58:21.194Z,99718.53
2022-09-25T12:01:00.687Z,99719.72
2022-09-25T12:03:38.068Z,99721.63
2022-09-25T12:06:26.874Z,99715.22
2022-09-25T12:09:07.965Z,99711.00
2022-09-25T12:11:45.593Z,99710.25
2022-09-25T12:14:21.859Z,99718.63
2022-09-25T12:17:00.349Z,99712.72
2022-09-25T12:19:38.188Z,99711.97
2022-09-25T12:22:15.190Z,99711.59
2022-09-25T12:24:56.677Z,99714.81
2022-09-25T12:27:39.035Z,99713.38
2022-09-25T12:30:17.291Z,99709.06
2022-09-25T12:33:08.139Z,99710.56
2022-09-25T12:35:45.959Z,99719.22
2022-09-25T12:38:23.001Z,99707.91
2022-09-25T12:40:55.430Z,99712.13
2022-09-25T12:43:28.821Z,99703.25
2022-09-25T12:46:01.276Z,99716.50
2022-09-25T12:48:37.475Z,99707.19
2022-09-25T12:51:18.389Z,99713.38
2022-09-25T12:53:50.379Z,99706.50
2022-09-25T12:56:21.940Z,99710.25
2022-09-25T12:59:03.452Z,99707.19
2022-09-25T13:01:38.456Z,99703.38
2022-09-25T13:04:19.544Z,99708.47
2022-09-25T13:06:53.091Z,99707.06
2022-09-25T13:09:28.230Z,99711.13
2022-09-25T13:11:59.683Z,99709.75
2022-09-25T13:14:35.618Z,99706.31
2022-09-25T13:17:03.871Z,99710.19
2022-09-25T13:19:35.285Z,99710.88
2022-09-25T13:22:07.155Z,99707.84
2022-09-25T13:24:43.984Z,99702.56
2022-09-25T13:27:18.821Z,99713.44
2022-09-25T13:29:57.450Z,99707.63
2022-09-25T13:32:28.854Z,99713.75
2022-09-25T13:35:00.428Z,99713.00
2022-09-25T13:37:34.661Z,99716.84
2022-09-25T13:40:33.638Z,99710.78
2022-09-25T13:43:20.892Z,99720.06
2022-09-25T13:45:50.366Z,99708.16
2022-09-25T13:48:37.900Z,99712.78
2022-09-25T13:51:38.206Z,99712.03
2022-09-25T13:54:27.807Z,99714.56
2022-09-25T13:56:55.628Z,99703.50
2022-09-25T13:59:39.653Z,99717.22
2022-09-25T14:02:47.798Z,99711.16
2022-09-25T14:05:21.024Z,99703.63
2022-09-25T14:07:54.796Z,99705.59
2022-09-25T14:10:26.290Z,99704.50
2022-09-25T14:12:54.453Z,99699.53
2022-09-25T14:15:32.815Z,99703.16
2022-09-25T14:18:04.220Z,99697.19
2022-09-25T14:20:36.033Z,99706.66
2022-09-25T14:23:07.622Z,99702.63
2022-09-25T14:25:40.773Z,99704.88
2022-09-25T14:28:20.564Z,99707.75
2022-09-25T14:31:21.570Z,99706.25
2022-09-25T14:34:07.946Z,99704.50
2022-09-25T14:36:44.738Z,99699.50
2022-09-25T14:39:37.693Z,99701.00
2022-09-25T14:42:27.537Z,99701.84
2022-09-25T14:45:22.779Z,99711.09
2022-09-25T14:47:53.787Z,99702.56
2022-09-25T14:50:25.348Z,99698.19
2022-09-25T14:52:58.278Z,99703.16
2022-09-25T14:55:30.459Z,99700.19
2022-09-25T14:58:01.501Z,99697.47
2022-09-25T15:00:32.350Z,99697.38
2022-09-25T15:03:00.222Z,99694.06
2022-09-25T15:05:34.170Z,99694.31
2022-09-25T15:08:03.490Z,99691.28
2022-09-25T15:10:34.120Z,99686.78
2022-09-25T15:13:15.846Z,99680.84
2022-09-25T15:16:06.373Z,99682.25
2022-09-25T15:18:37.839Z,99683.63
2022-09-25T15:21:11.595Z,99687.47
2022-09-25T15:23:39.938Z,99684.19
2022-09-25T15:26:07.744Z,99685.44
2022-09-25T15:28:40.261Z,99684.75
2022-09-25T15:31:09.062Z,99683.47
2022-09-25T15:33:38.870Z,99679.41
2022-09-25T15:36:17.126Z,99677.16
2022-09-25T15:38:45.981Z,99674.06
2022-09-25T15:41:16.490Z,99684.22
2022-09-25T15:43:45.896Z,99686.13
2022-09-25T15:46:38.228Z,99688.34
2022-09-25T15:49:07.814Z,99687.22
2022-09-25T15:51:38.384Z,99686.50
2022-09-25T15:54:34.375Z,99687.97
2022-09-25T15:57:06.213Z,99687.41
2022-09-25T16:00:02.883Z,99685.44
2022-09-25T16:02:53.456Z,99682.94
2022-09-25T16:05:29.940Z,99685.81
2022-09-25T16:08:17.396Z,99681.72
2022-09-25T16:10:50.127Z,99677.28
2022-09-25T16:13:22.412Z,99674.13
2022-09-25T16:15:54.550Z,99676.53
2022-09-25T16:18:48.266Z,99677.38
2022-09-25T16:21:29.818Z,99680.88
2022-09-25T16:24:03.772Z,99675.88
2022-09-25T16:26:38.858Z,99678.69
2022-09-25T16:29:22.344Z,99685.47
2022-09-25T16:31:56.200Z,99687.09
2022-09-25T16:34:29.778Z,99687.03
2022-09-25T16:36:59.205Z,99684.19
2022-09-25T16:39:31.500Z,99684.81
2022-09-25T16:42:00.393Z,99684.19
2022-09-25T16:44:46.535Z,99679.91
2022-09-25T16:47:19.973Z,99673.06
2022-09-25T16:49:49.980Z,99679.91
2022-09-25T16:52:22.429Z,99680.28
2022-09-25T16:54:54.545Z,99675.78
2022-09-25T16:57:25.864Z,99675.66
2022-09-25T16:59:55.523Z,99679.38
2022-09-25T17:02:33.835Z,99683.50
2022-09-25T17:05:04.727Z,99675.16
2022-09-25T17:07:33.240Z,99685.19
2022-09-25T17:10:02.601Z,99686.09
2022-09-25T17:12:32.615Z,99681.81
2022-09-25T17:15:01.711Z,99686.09
2022-09-25T17:17:32.736Z,99691.09
2022-09-25T17:20:01.235Z,99680.53
2022-09-25T17:22:31.321Z,99690.00
2022-09-25T17:25:03.361Z,99694.97
2022-09-25T17:27:31.430Z,99685.06
2022-09-25T17:30:00.091Z,99690.72
2022-09-25T17:32:29.654Z,99689.88
2022-09-25T17:35:02.174Z,99696.88
2022-09-25T17:37:30.230Z,99695.81
2022-09-25T17:40:00.849Z,99694.81
2022-09-25T17:42:31.033Z,99700.72
2022-09-25T17:44:59.864Z,99701.84
2022-09-25T17:47:28.382Z,99696.91
2022-09-25T17:49:58.391Z,99698.81
2022-09-25T17:52:28.137Z,99698.69
2022-09-25T17:54:56.328Z,99700.50
2022-09-25T17:57:27.999Z,99706.00
2022-09-25T17:59:56.434Z,99709.16
2022-09-25T18:02:29.170Z,99718.63
2022-09-25T18:04:57.899Z,99717.69
2022-09-25T18:07:33.337Z,99719.47
2022-09-25T18:10:03.349Z,99715.75
2022-09-25T18:12:31.956Z,99711.78
2022-09-25T18:15:00.472Z,99716.03
2022-09-25T18:17:29.074Z,99716.31
2022-09-25T18:20:15.786Z,99719.59
2022-09-25T18:22:45.985Z,99722.03
2022-09-25T18:25:17.500Z,99727.00
2022-09-25T18:27:45.477Z,99731.53
2022-09-25T18:30:17.859Z,99722.75
2022-09-25T18:32:46.469Z,99727.00
2022-09-25T18:35:15.837Z,99726.88
2022-09-25T18:37:46.685Z,99725.75
2022-09-25T18:40:17.667Z,99727.44
2022-09-25T18:42:46.186Z,99721.50
2022-09-25T18:45:14.851Z,99725.22
2022-09-25T18:47:44.123Z,99723.16
2022-09-25T18:50:15.528Z,99719.72
2022-09-25T18:52:47.677Z,99709.53
2022-09-25T18:55:16.023Z,99707.75
2022-09-25T18:57:44.198Z,99713.38
2022-09-25T19:00:13.199Z,99717.78
2022-09-25T19:02:42.502Z,99709.38
2022-09-25T19:05:11.407Z,99720.38
2022-09-25T19:07:39.622Z,99715.53
2022-09-25T19:10:11.108Z,99715.13
2022-09-25T19:12:38.816Z,99711.41
2022-09-25T19:15:07.572Z,99711.44
2022-09-25T19:17:37.240Z,99711.69
2022-09-25T19:20:06.988Z,99717.00
2022-09-25T19:22:37.218Z,99705.00
2022-09-25T19:25:06.279Z,99710.34
2022-09-25T19:27:35.630Z,99709.31
2022-09-25T19:30:03.912Z,99719.13
2022-09-25T19:32:31.777Z,99713.63
2022-09-25T19:34:59.815Z,99712.78
2022-09-25T19:37:29.967Z,99716.13
2022-09-25T19:40:15.721Z,99713.22
2022-09-25T19:42:47.210Z,99704.75
2022-09-25T19:45:15.634Z,99701.25
2022-09-25T19:47:43.848Z,99715.44
2022-09-25T19:50:12.663Z,99716.22
2022-09-25T19:52:40.508Z,99719.78
2022-09-25T19:55:09.887Z,99716.38
2022-09-25T19:57:39.600Z,99711.41
2022-09-25T20:00:11.932Z,99715.91
2022-09-25T20:02:45.949Z,99708.59
2022-09-25T20:05:14.887Z,99715.75
2022-09-25T20:07:42.780Z,99712.16
2022-09-25T20:10:10.995Z,99708.22
2022-09-25T20:12:38.767Z,99708.22
2022-09-25T20:15:07.862Z,99700.97
2022-09-25T20:17:37.060Z,99701.66
2022-09-25T20:20:06.745Z,99694.88
2022-09-25T20:22:34.588Z,99698.69
2022-09-25T20:25:02.383Z,99696.19
2022-09-25T20:27:30.399Z,99700.16
2022-09-25T20:29:58.199Z,99705.97
2022-09-25T20:32:25.870Z,99697.13
2022-09-25T20:34:55.050Z,99698.00
2022-09-25T20:37:22.730Z,99698.22
2022-09-25T20:39:50.847Z,99692.63
2022-09-25T20:42:18.951Z,99697.75
2022-09-25T20:44:47.037Z,99694.19
2022-09-25T20:47:15.304Z,99701.09
2022-09-25T20:49:43.906Z,99707.13
2022-09-25T20:52:13.970Z,99707.59
2022-09-25T20:54:43.440Z,99705.59
2022-09-25T20:57:11.875Z,99704.28
2022-09-25T20:59:40.144Z,99698.03
2022-09-25T21:02:10.001Z,99696.94
2022-09-25T21:04:38.680Z,99695.16
2022-09-25T21:07:06.989Z,99692.47
2022-09-25T21:09:36.931Z,99695.31
2022-09-25T21:12:05.862Z,99689.38
2022-09-25T21:14:35.491Z,99701.06
2022-09-25T21:17:03.854Z,99693.63
2022-09-25T21:19:31.987Z,99689.69
2022-09-25T21:21:59.695Z,99686.97
2022-09-25T21:24:27.440Z,99681.22
2022-09-25T21:26:56.677Z,99682.88
2022-09-25T21:29:24.469Z,99679.91
2022-09-25T21:31:52.213Z,99681.03
2022-09-25T21:34:20.927Z,99681.75
2022-09-25T21:36:49.151Z,99673.72
2022-09-25T21:39:17.255Z,99670.91
2022-09-25T21:41:44.930Z,99672.06
2022-09-25T21:44:16.402Z,99672.88
2022-09-25T21:46:44.745Z,99670.84
2022-09-25T21:49:17.147Z,99661.13
2022-09-25T21:51:46.572Z,99662.41
2022-09-25T21:54:16.163Z,99659.44
2022-09-25T21:56:44.482Z,99660.59
2022-09-25T21:59:14.382Z,99653.25
2022-09-25T22:01:44.882Z,99661.13
2022-09-25T22:04:14.881Z,99661.69
2022-09-25T22:06:45.246Z,99672.31
2022-09-25T22:09:15.773Z,99669.72
2022-09-25T22:11:43.769Z,99670.66
2022-09-25T22:14:15.971Z,99671.47
2022-09-25T22:16:48.111Z,99670.19
2022-09-25T22:19:20.503Z,99672.94
2022-09-25T22:21:50.107Z,99663.84
2022-09-25T22:24:18.385Z,99674.44
2022-09-25T22:26:48.716Z,99665.34
2022-09-25T22:29:17.294Z,99666.28
2022-09-25T22:31:46.490Z,99665.34
2022-09-25T22:34:18.383Z,99658.59
2022-09-25T22:36:46.790Z,99661.69
2022-09-25T22:39:16.756Z,99657.66
2022-09-25T22:41:44.884Z,99654.34
2022-09-25T22:44:12.917Z,99656.25
2022-09-25T22:46:40.823Z,99656.78
2022-09-25T22:49:09.911Z,99659.53
2022-09-25T22:51:37.953Z,99651.66
2022-09-25T22:54:06.037Z,99648.13
2022-09-25T22:56:36.031Z,99647.09
2022-09-25T22:59:07.436Z,99651.00
2022-09-25T23:01:38.643Z,99647.75
2022-09-25T23:04:08.180Z,99646.50
2022-09-25T23:06:37.497Z,99643.19
2022-09-25T23:09:08.138Z,99647.03
2022-09-25T23:11:36.555Z,99641.16
2022-09-25T23:14:06.894Z,99642.00
2022-09-25T23:16:36.639Z,99639.97
2022-09-25T23:19:05.468Z,99638.00
2022-09-25T23:21:33.825Z,99638.81
2022-09-25T23:24:05.761Z,99636.63
2022-09-25T23:26:34.281Z,99633.81
2022-09-25T23:29:02.663Z,99630.28
2022-09-25T23:31:33.133Z,99624.16
2022-09-25T23:34:01.724Z,99631.00
2022-09-25T23:36:31.917Z,99635.81
2022-09-25T23:39:01.868Z,99622.44
2022-09-25T23:41:34.696Z,99625.25
2022-09-25T23:44:04.803Z,99623.38
2022-09-25T23:46:35.399Z,99620.06
2022-09-25T23:49:04.344Z,99623.25
2022-09-25T23:51:32.883Z,99614.22
2022-09-25T23:54:02.763Z,99621.06
2022-09-25T23:56:35.149Z,99613.63
2022-09-25T23:59:04.601Z,99611.03
